Time,TemperatureF,DewpointF,PressureIn,WindDirection,WindDirectionDegrees,WindSpeedMPH,WindSpeedGustMPH,Humidity,HourlyPrecipIn,Conditions,Clouds,dailyrainin,SoftwareType,DateUTC
2013-10-10 00:00:00,75.9,72.1,29.98,North,349,0.0,5.0,88,0.00,,,0.00,meteohub,2013-10-10 04:00:00,
2013-10-10 00:01:00,75.9,72.1,29.98,North,349,0.0,5.0,88,0.00,,,0.00,meteohub,2013-10-10 04:01:00,
2013-10-10 00:02:00,75.9,72.1,29.98,NNW,348,0.0,5.0,88,0.00,,,0.00,meteohub,2013-10-10 04:02:00,
2013-10-10 00:07:00,75.9,72.1,29.98,North,5,0.0,5.0,88,0.00,,,0.00,meteohub,2013-10-10 04:07:00,
2013-10-10 00:12:00,75.9,72.1,29.98,NNW,348,0.0,5.0,88,0.00,,,0.00,meteohub,2013-10-10 04:12:00,
2013-10-10 00:17:00,75.9,72.1,29.98,NNE,25,2.0,5.0,88,0.00,,,0.00,meteohub,2013-10-10 04:17:00,
2013-10-10 00:22:00,75.9,72.1,29.98,NNE,22,1.0,3.0,88,0.00,,,0.00,meteohub,2013-10-10 04:22:00,
2013-10-10 00:27:00,75.9,72.1,29.98,North,5,0.0,4.0,88,0.00,,,0.00,meteohub,2013-10-10 04:27:00,
2013-10-10 00:32:00,75.7,72.0,29.98,North,0,0.0,6.0,88,0.00,,,0.00,meteohub,2013-10-10 04:32:00,
2013-10-10 00:37:00,75.7,72.0,29.98,NNE,30,2.0,6.0,88,0.00,,,0.00,meteohub,2013-10-10 04:37:00,
2013-10-10 00:42:00,75.7,72.0,29.98,North,350,1.0,6.0,88,0.00,,,0.00,meteohub,2013-10-10 04:42:00,
2013-10-10 00:47:00,75.7,72.0,29.97,NE,44,0.0,5.0,88,0.00,,,0.00,meteohub,2013-10-10 04:47:00,
2013-10-10 00:52:00,75.7,72.0,29.98,North,355,1.0,4.0,88,0.00,,,0.00,meteohub,2013-10-10 04:52:00,
2013-10-10 00:57:00,75.7,72.0,29.98,NNW,344,0.0,4.0,88,0.00,,,0.00,meteohub,2013-10-10 04:57:00,
2013-10-10 01:02:00,75.9,72.1,29.98,North,355,1.0,4.0,88,0.00,,,0.00,meteohub,2013-10-10 05:02:00,
2013-10-10 01:07:00,75.9,72.1,29.98,NNW,343,1.0,4.0,88,0.00,,,0.00,meteohub,2013-10-10 05:07:00,
2013-10-10 01:12:00,75.9,72.1,29.97,NNW,346,0.0,4.0,88,0.00,,,0.00,meteohub,2013-10-10 05:12:00,
2013-10-10 01:17:00,75.9,72.1,29.97,North,0,0.0,3.0,88,0.00,,,0.00,meteohub,2013-10-10 05:17:00,
2013-10-10 01:22:00,75.9,72.1,29.97,North,355,0.0,3.0,88,0.00,,,0.00,meteohub,2013-10-10 05:22:00,
2013-10-10 01:27:00,75.9,72.1,29.98,NNE,13,0.0,4.0,88,0.00,,,0.00,meteohub,2013-10-10 05:27:00,
2013-10-10 01:32:00,76.3,72.5,29.98,North,5,0.0,4.0,88,0.00,,,0.00,meteohub,2013-10-10 05:32:00,
2013-10-10 01:37:00,76.5,72.7,29.97,NNE,19,0.0,4.0,88,0.00,,,0.00,meteohub,2013-10-10 05:37:00,
2013-10-10 01:42:00,76.5,72.7,29.98,North,10,0.0,4.0,88,0.00,,,0.00,meteohub,2013-10-10 05:42:00,
2013-10-10 01:47:00,76.5,72.7,29.97,North,355,0.0,4.0,88,0.00,,,0.00,meteohub,2013-10-10 05:47:00,
2013-10-10 01:52:00,76.5,73.0,29.98,NNE,20,0.0,4.0,89,0.00,,,0.00,meteohub,2013-10-10 05:52:00,
2013-10-10 01:57:00,76.6,73.2,29.98,NE,54,2.0,4.0,89,0.00,,,0.00,meteohub,2013-10-10 05:57:00,
2013-10-10 02:03:00,76.6,73.4,29.98,NNE,13,2.0,5.0,90,0.00,,,0.00,meteohub,2013-10-10 06:03:00,
2013-10-10 02:09:00,76.6,73.4,29.98,ESE,107,1.0,8.0,90,0.00,,,0.00,meteohub,2013-10-10 06:09:00,
2013-10-10 02:14:00,76.6,73.2,29.98,East,80,3.0,8.0,89,0.00,,,0.00,meteohub,2013-10-10 06:14:00,
2013-10-10 02:19:00,76.5,72.7,29.98,NE,53,0.0,8.0,88,0.00,,,0.00,meteohub,2013-10-10 06:19:00,
2013-10-10 02:24:00,76.5,73.0,29.98,NNE,17,2.0,7.0,89,0.00,,,0.00,meteohub,2013-10-10 06:24:00,
2013-10-10 02:29:00,76.6,73.2,29.97,NNE,32,1.0,9.0,89,0.00,,,0.00,meteohub,2013-10-10 06:29:00,
2013-10-10 02:34:00,76.6,73.2,29.97,NE,46,1.0,9.0,89,0.00,,,0.00,meteohub,2013-10-10 06:34:00,
2013-10-10 02:39:00,76.5,73.0,29.97,ENE,58,2.0,9.0,89,0.00,,,0.00,meteohub,2013-10-10 06:39:00,
2013-10-10 02:44:00,76.3,72.9,29.97,NE,34,0.0,5.0,89,0.00,,,0.00,meteohub,2013-10-10 06:44:00,
2013-10-10 02:49:00,76.3,73.0,29.96,ENE,65,0.0,5.0,90,0.00,,,0.00,meteohub,2013-10-10 06:49:00,
2013-10-10 02:54:00,76.3,73.0,29.96,ENE,63,0.0,5.0,90,0.00,,,0.00,meteohub,2013-10-10 06:54:00,
2013-10-10 02:59:00,76.3,73.0,29.96,NE,35,0.0,3.0,90,0.00,,,0.00,meteohub,2013-10-10 06:59:00,
2013-10-10 03:04:00,76.3,73.0,29.96,NNE,19,0.0,3.0,90,0.00,,,0.00,meteohub,2013-10-10 07:04:00,
2013-10-10 03:09:00,76.3,73.0,29.96,NNE,16,0.0,2.0,90,0.00,,,0.00,meteohub,2013-10-10 07:09:00,
2013-10-10 03:14:00,76.3,73.0,29.95,NNE,16,0.0,2.0,90,0.00,,,0.00,meteohub,2013-10-10 07:14:00,
2013-10-10 03:19:00,76.1,72.9,29.95,NNE,16,0.0,2.0,90,0.00,,,0.00,meteohub,2013-10-10 07:19:00,
2013-10-10 03:24:00,75.9,73.0,29.95,NNE,16,0.0,2.0,91,0.00,,,0.00,meteohub,2013-10-10 07:24:00,
2013-10-10 03:29:00,75.7,72.9,29.95,NNE,16,0.0,0.0,91,0.00,,,0.00,meteohub,2013-10-10 07:29:00,
2013-10-10 03:34:00,75.6,73.0,29.95,NNE,16,0.0,0.0,92,0.00,,,0.00,meteohub,2013-10-10 07:34:00,
2013-10-10 03:39:00,75.4,72.9,29.95,NNE,16,0.0,0.0,92,0.00,,,0.00,meteohub,2013-10-10 07:39:00,
2013-10-10 03:44:00,75.2,72.7,29.95,NNE,16,0.0,0.0,92,0.00,,,0.00,meteohub,2013-10-10 07:44:00,
2013-10-10 03:49:00,75.0,72.5,29.96,NNE,16,0.0,0.0,92,0.00,,,0.00,meteohub,2013-10-10 07:49:00,
2013-10-10 03:54:00,74.7,72.1,29.95,NNE,16,0.0,0.0,92,0.00,,,0.00,meteohub,2013-10-10 07:54:00,
2013-10-10 03:59:00,74.5,72.3,29.96,NNE,16,0.0,0.0,93,0.00,,,0.00,meteohub,2013-10-10 07:59:00,
2013-10-10 04:04:00,74.3,72.1,29.96,NNE,16,0.0,0.0,93,0.00,,,0.00,meteohub,2013-10-10 08:04:00,
2013-10-10 04:09:00,74.1,72.0,29.96,NNE,16,0.0,1.0,93,0.00,,,0.00,meteohub,2013-10-10 08:09:00,
2013-10-10 04:14:00,73.9,71.8,29.95,NNE,16,0.0,1.0,93,0.00,,,0.00,meteohub,2013-10-10 08:14:00,
2013-10-10 04:20:00,73.8,72.0,29.95,NNE,13,0.0,1.0,94,0.00,,,0.00,meteohub,2013-10-10 08:20:00,
2013-10-10 04:25:00,73.8,72.0,29.95,North,355,0.0,1.0,94,0.00,,,0.00,meteohub,2013-10-10 08:25:00,
2013-10-10 04:30:00,73.6,71.8,29.96,NNW,348,0.0,2.0,94,0.00,,,0.00,meteohub,2013-10-10 08:30:00,
2013-10-10 04:35:00,73.6,71.8,29.96,NNW,344,0.0,2.0,94,0.00,,,0.00,meteohub,2013-10-10 08:35:00,
2013-10-10 04:40:00,73.6,71.8,29.96,NNW,344,0.0,2.0,94,0.00,,,0.00,meteohub,2013-10-10 08:40:00,
2013-10-10 04:45:00,73.4,71.6,29.96,NNW,344,0.0,1.0,94,0.00,,,0.00,meteohub,2013-10-10 08:45:00,
2013-10-10 04:50:00,73.2,71.4,29.96,NNW,344,0.0,1.0,94,0.00,,,0.00,meteohub,2013-10-10 08:50:00,
2013-10-10 04:55:00,73.0,71.2,29.95,NNW,344,0.0,1.0,94,0.00,,,0.00,meteohub,2013-10-10 08:55:00,
2013-10-10 05:00:00,73.0,71.2,29.96,NNW,343,0.0,1.0,94,0.00,,,0.00,meteohub,2013-10-10 09:00:00,
2013-10-10 05:05:00,72.9,71.1,29.96,NNW,343,0.0,1.0,94,0.00,,,0.00,meteohub,2013-10-10 09:05:00,
2013-10-10 05:10:00,72.9,71.1,29.96,NNW,343,0.0,1.0,94,0.00,,,0.00,meteohub,2013-10-10 09:10:00,
2013-10-10 05:15:00,72.7,70.9,29.96,NNW,343,0.0,1.0,94,0.00,,,0.00,meteohub,2013-10-10 09:15:00,
2013-10-10 05:20:00,72.7,70.9,29.96,NNW,329,0.0,1.0,94,0.00,,,0.00,meteohub,2013-10-10 09:20:00,
2013-10-10 05:25:00,72.7,70.9,29.96,NW,326,0.0,1.0,94,0.00,,,0.00,meteohub,2013-10-10 09:25:00,
2013-10-10 05:30:00,72.7,70.9,29.95,NW,306,0.0,2.0,94,0.00,,,0.00,meteohub,2013-10-10 09:30:00,
2013-10-10 05:35:00,72.3,70.5,29.95,NW,307,0.0,2.0,94,0.00,,,0.00,meteohub,2013-10-10 09:35:00,
2013-10-10 05:40:00,72.3,70.5,29.95,NW,307,0.0,2.0,94,0.00,,,0.00,meteohub,2013-10-10 09:40:00,
2013-10-10 05:45:00,72.1,70.7,29.95,NW,319,0.0,1.0,95,0.00,,,0.00,meteohub,2013-10-10 09:45:00,
2013-10-10 05:50:00,72.1,70.7,29.95,NW,317,0.0,2.0,95,0.00,,,0.00,meteohub,2013-10-10 09:50:00,
2013-10-10 05:55:00,72.0,70.5,29.96,NW,317,0.0,2.0,95,0.00,,,0.00,meteohub,2013-10-10 09:55:00,
2013-10-10 06:00:00,72.0,70.5,29.96,NW,317,0.0,2.0,95,0.00,,,0.00,meteohub,2013-10-10 10:00:00,
2013-10-10 06:05:00,72.0,70.5,29.96,NW,317,0.0,1.0,95,0.00,,,0.00,meteohub,2013-10-10 10:05:00,
2013-10-10 06:10:00,71.8,70.3,29.96,NW,317,0.0,1.0,95,0.00,,,0.00,meteohub,2013-10-10 10:10:00,
2013-10-10 06:15:00,71.8,70.3,29.96,NW,317,0.0,0.0,95,0.00,,,0.00,meteohub,2013-10-10 10:15:00,
2013-10-10 06:20:00,71.6,70.2,29.96,NW,317,0.0,0.0,95,0.00,,,0.00,meteohub,2013-10-10 10:20:00,
2013-10-10 06:25:00,71.4,70.0,29.96,NW,317,0.0,0.0,95,0.00,,,0.00,meteohub,2013-10-10 10:25:00,
2013-10-10 06:30:00,71.4,70.0,29.96,NW,317,0.0,1.0,95,0.00,,,0.00,meteohub,2013-10-10 10:30:00,
2013-10-10 06:35:00,71.4,70.0,29.96,NW,312,0.0,1.0,95,0.00,,,0.00,meteohub,2013-10-10 10:35:00,
2013-10-10 06:40:00,71.2,69.8,29.96,NW,312,0.0,1.0,95,0.00,,,0.00,meteohub,2013-10-10 10:40:00,
2013-10-10 06:45:00,71.2,69.8,29.96,NW,312,0.0,1.0,95,0.00,,,0.00,meteohub,2013-10-10 10:45:00,
2013-10-10 06:50:00,71.2,69.8,29.96,NW,312,0.0,0.0,95,0.00,,,0.00,meteohub,2013-10-10 10:50:00,
2013-10-10 06:55:00,71.2,69.8,29.96,NNE,17,0.0,1.0,95,0.00,,,0.00,meteohub,2013-10-10 10:55:00,
2013-10-10 07:00:00,71.1,69.6,29.96,NNE,17,0.0,1.0,95,0.00,,,0.00,meteohub,2013-10-10 11:00:00,
2013-10-10 07:05:00,71.1,69.6,29.96,NNE,17,0.0,1.0,95,0.00,,,0.00,meteohub,2013-10-10 11:05:00,
2013-10-10 07:10:00,71.1,69.6,29.96,NNE,17,0.0,0.0,95,0.00,,,0.00,meteohub,2013-10-10 11:10:00,
2013-10-10 07:15:00,70.9,69.4,29.97,NNE,17,0.0,0.0,95,0.00,,,0.00,meteohub,2013-10-10 11:15:00,
2013-10-10 07:20:00,70.9,69.4,29.97,NNE,17,0.0,0.0,95,0.00,,,0.00,meteohub,2013-10-10 11:20:00,
2013-10-10 07:25:00,70.9,69.4,29.97,NNE,17,0.0,0.0,95,0.00,,,0.00,meteohub,2013-10-10 11:25:00,
2013-10-10 07:30:00,70.9,69.4,29.97,NNE,17,0.0,0.0,95,0.00,,,0.00,meteohub,2013-10-10 11:30:00,
2013-10-10 07:35:00,70.9,69.6,29.97,NNE,17,0.0,0.0,96,0.00,,,0.00,meteohub,2013-10-10 11:35:00,
2013-10-10 07:40:00,70.9,69.6,29.97,NNE,17,0.0,0.0,96,0.00,,,0.00,meteohub,2013-10-10 11:40:00,
2013-10-10 07:45:00,70.9,69.6,29.97,NNE,17,0.0,0.0,96,0.00,,,0.00,meteohub,2013-10-10 11:45:00,
2013-10-10 07:50:00,71.1,69.8,29.97,NNE,17,0.0,0.0,96,0.00,,,0.00,meteohub,2013-10-10 11:50:00,
2013-10-10 07:55:00,71.1,69.8,29.97,NNE,17,0.0,0.0,96,0.00,,,0.00,meteohub,2013-10-10 11:55:00,
2013-10-10 08:00:00,71.2,70.0,29.97,NNE,13,0.0,2.0,96,0.00,,,0.00,meteohub,2013-10-10 12:00:00,
2013-10-10 08:05:00,71.4,70.2,29.97,NNE,15,0.0,4.0,96,0.00,,,0.00,meteohub,2013-10-10 12:05:00,
2013-10-10 08:10:00,71.6,70.3,29.97,NNW,339,1.0,4.0,96,0.00,,,0.00,meteohub,2013-10-10 12:10:00,
2013-10-10 08:15:00,72.0,70.5,29.98,North,0,0.0,4.0,95,0.00,,,0.00,meteohub,2013-10-10 12:15:00,
2013-10-10 08:20:00,72.1,70.7,29.98,NNE,22,2.0,4.0,95,0.00,,,0.00,meteohub,2013-10-10 12:20:00,
2013-10-10 08:25:00,72.3,70.9,29.98,North,355,0.0,4.0,95,0.00,,,0.00,meteohub,2013-10-10 12:25:00,
2013-10-10 08:30:00,72.9,71.1,29.98,NNW,346,2.0,3.0,94,0.00,,,0.00,meteohub,2013-10-10 12:30:00,
2013-10-10 08:35:00,73.2,71.4,29.98,North,5,0.0,4.0,94,0.00,,,0.00,meteohub,2013-10-10 12:35:00,
2013-10-10 08:40:00,73.8,71.6,29.99,North,11,0.0,4.0,93,0.00,,,0.00,meteohub,2013-10-10 12:40:00,
2013-10-10 08:45:00,74.3,71.8,29.99,North,0,1.0,4.0,92,0.00,,,0.00,meteohub,2013-10-10 12:45:00,
2013-10-10 08:50:00,75.0,72.1,29.99,North,5,0.0,3.0,91,0.00,,,0.00,meteohub,2013-10-10 12:50:00,
2013-10-10 08:55:00,75.7,72.3,29.99,North,5,0.0,3.0,89,0.00,,,0.00,meteohub,2013-10-10 12:55:00,
2013-10-10 09:00:00,76.5,72.7,29.99,North,5,1.0,4.0,88,0.00,,,0.00,meteohub,2013-10-10 13:00:00,
2013-10-10 09:05:00,77.2,72.7,29.99,NNW,342,0.0,4.0,86,0.00,,,0.00,meteohub,2013-10-10 13:05:00,
2013-10-10 09:10:00,77.5,73.0,29.99,North,5,0.0,4.0,86,0.00,,,0.00,meteohub,2013-10-10 13:10:00,
2013-10-10 09:15:00,78.3,73.0,29.99,ENE,70,0.0,4.0,84,0.00,,,0.00,meteohub,2013-10-10 13:15:00,
2013-10-10 09:20:00,78.6,73.4,29.99,NNE,33,0.0,4.0,84,0.00,,,0.00,meteohub,2013-10-10 13:20:00,
2013-10-10 09:25:00,79.3,73.8,29.99,NNE,19,2.0,4.0,83,0.00,,,0.00,meteohub,2013-10-10 13:25:00,
2013-10-10 09:30:00,80.1,74.1,29.99,WNW,300,1.0,4.0,82,0.00,,,0.00,meteohub,2013-10-10 13:30:00,
2013-10-10 09:35:00,80.4,73.8,30.00,NNE,19,4.0,5.0,80,0.00,,,0.00,meteohub,2013-10-10 13:35:00,
2013-10-10 09:40:00,80.8,74.5,29.99,NE,45,3.0,5.0,81,0.00,,,0.00,meteohub,2013-10-10 13:40:00,
2013-10-10 09:45:00,81.0,74.1,30.00,NE,34,0.0,5.0,80,0.00,,,0.00,meteohub,2013-10-10 13:45:00,
2013-10-10 09:50:00,81.5,74.7,30.00,East,81,6.0,6.0,80,0.00,,,0.00,meteohub,2013-10-10 13:50:00,
2013-10-10 09:55:00,82.2,75.0,30.00,NNE,13,0.0,6.0,79,0.00,,,0.00,meteohub,2013-10-10 13:55:00,
2013-10-10 10:00:00,82.9,74.7,30.00,NNE,26,1.0,6.0,76,0.00,,,0.00,meteohub,2013-10-10 14:00:00,
2013-10-10 10:05:00,82.9,73.8,30.00,NNW,336,0.0,6.0,74,0.00,,,0.00,meteohub,2013-10-10 14:05:00,
2013-10-10 10:10:00,83.1,73.6,30.00,North,355,2.0,6.0,73,0.00,,,0.00,meteohub,2013-10-10 14:10:00,
2013-10-10 10:15:00,83.5,74.3,30.00,North,5,1.0,6.0,74,0.00,,,0.00,meteohub,2013-10-10 14:15:00,
2013-10-10 10:20:00,83.8,73.4,30.00,NNE,13,0.0,7.0,71,0.00,,,0.00,meteohub,2013-10-10 14:20:00,
2013-10-10 10:25:00,84.0,73.6,30.00,NE,55,3.0,7.0,71,0.00,,,0.00,meteohub,2013-10-10 14:25:00,
2013-10-10 10:30:00,84.0,73.6,30.00,SSE,161,5.0,7.0,71,0.00,,,0.00,meteohub,2013-10-10 14:30:00,
2013-10-10 10:35:00,84.4,74.3,30.01,NE,38,0.0,7.0,72,0.00,,,0.00,meteohub,2013-10-10 14:35:00,
2013-10-10 10:40:00,84.4,73.9,30.01,NE,53,5.0,6.0,71,0.00,,,0.00,meteohub,2013-10-10 14:40:00,
2013-10-10 10:45:00,84.0,73.9,30.01,NNE,29,4.0,7.0,72,0.00,,,0.00,meteohub,2013-10-10 14:45:00,
2013-10-10 10:50:00,84.0,74.5,30.01,NE,40,3.0,7.0,73,0.00,,,0.00,meteohub,2013-10-10 14:50:00,
2013-10-10 10:55:00,84.0,74.8,30.01,NE,40,2.0,7.0,74,0.00,,,0.00,meteohub,2013-10-10 14:55:00,
2013-10-10 11:01:00,84.2,74.7,30.01,NNW,344,0.0,7.0,73,0.00,,,0.00,meteohub,2013-10-10 15:01:00,
2013-10-10 11:06:00,84.0,73.9,30.01,NNE,25,2.0,7.0,72,0.00,,,0.00,meteohub,2013-10-10 15:06:00,
2013-10-10 11:11:00,84.4,74.8,30.01,NE,34,4.0,7.0,73,0.00,,,0.00,meteohub,2013-10-10 15:11:00,
2013-10-10 11:16:00,84.6,75.0,30.01,NNE,26,0.0,7.0,73,0.00,,,0.00,meteohub,2013-10-10 15:16:00,
2013-10-10 11:21:00,84.7,74.7,30.01,ENE,68,4.0,8.0,72,0.00,,,0.00,meteohub,2013-10-10 15:21:00,
2013-10-10 11:26:00,84.7,74.7,30.01,NE,55,2.0,8.0,72,0.00,,,0.00,meteohub,2013-10-10 15:26:00,
2013-10-10 11:31:00,84.9,74.5,30.01,East,84,0.0,8.0,71,0.00,,,0.00,meteohub,2013-10-10 15:31:00,
2013-10-10 11:36:00,85.3,74.8,30.01,NE,38,3.0,7.0,71,0.00,,,0.00,meteohub,2013-10-10 15:36:00,
2013-10-10 11:41:00,85.6,74.3,30.01,NE,44,1.0,5.0,69,0.00,,,0.00,meteohub,2013-10-10 15:41:00,
2013-10-10 11:46:00,86.0,75.0,30.01,SE,127,3.0,5.0,70,0.00,,,0.00,meteohub,2013-10-10 15:46:00,
2013-10-10 11:51:00,85.8,74.8,30.01,NNE,32,3.0,6.0,70,0.00,,,0.00,meteohub,2013-10-10 15:51:00,
2013-10-10 11:56:00,85.8,74.5,30.00,East,92,0.0,6.0,69,0.00,,,0.00,meteohub,2013-10-10 15:56:00,
2013-10-10 12:01:00,86.0,75.6,30.00,ESE,108,1.0,6.0,71,0.00,,,0.00,meteohub,2013-10-10 16:01:00,
2013-10-10 12:06:00,86.2,74.8,30.00,East,96,1.0,10.0,69,0.00,,,0.00,meteohub,2013-10-10 16:06:00,
2013-10-10 12:11:00,86.5,74.7,30.00,East,92,2.0,10.0,68,0.00,,,0.00,meteohub,2013-10-10 16:11:00,
2013-10-10 12:16:00,86.4,75.0,30.00,NE,34,6.0,10.0,69,0.00,,,0.00,meteohub,2013-10-10 16:16:00,
2013-10-10 12:21:00,85.8,73.9,30.00,North,11,3.0,8.0,68,0.00,,,0.00,meteohub,2013-10-10 16:21:00,
2013-10-10 12:26:00,86.2,74.8,30.00,NNE,32,3.0,10.0,69,0.00,,,0.00,meteohub,2013-10-10 16:26:00,
2013-10-10 12:31:00,86.2,74.3,30.00,North,11,7.0,10.0,68,0.00,,,0.00,meteohub,2013-10-10 16:31:00,
2013-10-10 12:36:00,86.4,75.0,30.00,NE,49,6.0,10.0,69,0.00,,,0.00,meteohub,2013-10-10 16:36:00,
2013-10-10 12:41:00,86.5,73.8,30.00,NE,46,1.0,9.0,66,0.00,,,0.00,meteohub,2013-10-10 16:41:00,
2013-10-10 12:46:00,86.2,73.9,30.00,NE,48,3.0,9.0,67,0.00,,,0.00,meteohub,2013-10-10 16:46:00,
2013-10-10 12:51:00,85.8,73.2,30.00,North,5,2.0,10.0,66,0.00,,,0.00,meteohub,2013-10-10 16:51:00,
2013-10-10 12:56:00,86.2,73.0,30.00,NNW,338,3.0,10.0,65,0.00,,,0.00,meteohub,2013-10-10 16:56:00,
2013-10-10 13:01:00,86.2,73.4,29.99,NW,325,9.0,10.0,66,0.00,,,0.00,meteohub,2013-10-10 17:01:00,
2013-10-10 13:06:00,85.8,73.2,29.99,NNE,12,0.0,9.0,66,0.00,,,0.00,meteohub,2013-10-10 17:06:00,
2013-10-10 13:11:00,85.8,72.7,29.99,NE,35,6.0,9.0,65,0.00,,,0.00,meteohub,2013-10-10 17:11:00,
2013-10-10 13:16:00,85.6,73.0,29.99,ENE,57,2.0,12.0,66,0.00,,,0.00,meteohub,2013-10-10 17:16:00,
2013-10-10 13:21:00,86.2,73.0,29.99,NE,51,5.0,12.0,65,0.00,,,0.00,meteohub,2013-10-10 17:21:00,
2013-10-10 13:26:00,86.7,73.6,29.99,East,101,1.0,12.0,65,0.00,,,0.00,meteohub,2013-10-10 17:26:00,
2013-10-10 13:31:00,86.9,73.2,29.98,NNE,16,2.0,10.0,64,0.00,,,0.00,meteohub,2013-10-10 17:31:00,
2013-10-10 13:36:00,87.1,73.4,29.99,NNE,13,2.0,10.0,64,0.00,,,0.00,meteohub,2013-10-10 17:36:00,
2013-10-10 13:41:00,87.1,73.4,29.98,NE,40,3.0,10.0,64,0.00,,,0.00,meteohub,2013-10-10 17:41:00,
2013-10-10 13:46:00,86.7,72.7,29.98,East,101,0.0,9.0,63,0.00,,,0.00,meteohub,2013-10-10 17:46:00,
2013-10-10 13:51:00,86.4,72.7,29.98,North,5,4.0,9.0,64,0.00,,,0.00,meteohub,2013-10-10 17:51:00,
2013-10-10 13:56:00,86.7,72.7,29.98,ENE,67,2.0,9.0,63,0.00,,,0.00,meteohub,2013-10-10 17:56:00,
2013-10-10 14:01:00,86.7,73.0,29.97,East,93,3.0,10.0,64,0.00,,,0.00,meteohub,2013-10-10 18:01:00,
2013-10-10 14:06:00,86.5,72.5,29.97,NE,49,3.0,10.0,63,0.00,,,0.00,meteohub,2013-10-10 18:06:00,
2013-10-10 14:12:00,86.7,72.7,29.97,NNE,26,5.0,10.0,63,0.00,,,0.00,meteohub,2013-10-10 18:12:00,
2013-10-10 14:17:00,86.7,72.1,29.97,NNE,28,1.0,10.0,62,0.00,,,0.00,meteohub,2013-10-10 18:17:00,
2013-10-10 14:21:00,87.1,72.9,29.96,ENE,66,8.0,10.0,63,0.00,,,0.00,meteohub,2013-10-10 18:21:00,
2013-10-10 14:26:00,86.7,72.7,29.96,NE,40,0.0,10.0,63,0.00,,,0.00,meteohub,2013-10-10 18:26:00,
2013-10-10 14:32:00,86.4,72.3,29.96,East,82,3.0,8.0,63,0.00,,,0.00,meteohub,2013-10-10 18:32:00,
2013-10-10 14:37:00,86.0,71.4,29.96,ENE,65,0.0,8.0,62,0.00,,,0.00,meteohub,2013-10-10 18:37:00,
2013-10-10 14:42:00,85.8,71.2,29.96,NNE,27,2.0,10.0,62,0.00,,,0.00,meteohub,2013-10-10 18:42:00,
2013-10-10 14:47:00,85.5,72.0,29.95,East,81,3.0,10.0,64,0.00,,,0.00,meteohub,2013-10-10 18:47:00,
2013-10-10 14:52:00,85.6,72.5,29.95,NNE,17,4.0,10.0,65,0.00,,,0.00,meteohub,2013-10-10 18:52:00,
2013-10-10 14:57:00,86.0,72.3,29.95,NE,53,1.0,10.0,64,0.00,,,0.00,meteohub,2013-10-10 18:57:00,
2013-10-10 15:02:00,86.2,72.1,29.95,NE,55,5.0,10.0,63,0.00,,,0.00,meteohub,2013-10-10 19:02:00,
2013-10-10 15:07:00,86.2,71.6,29.95,ENE,67,1.0,10.0,62,0.00,,,0.00,meteohub,2013-10-10 19:07:00,
2013-10-10 15:12:00,86.5,71.4,29.95,East,84,6.0,9.0,61,0.00,,,0.00,meteohub,2013-10-10 19:12:00,
2013-10-10 15:17:00,86.7,72.1,29.95,North,355,3.0,9.0,62,0.00,,,0.00,meteohub,2013-10-10 19:17:00,
2013-10-10 15:22:00,86.5,70.5,29.95,East,84,0.0,9.0,59,0.00,,,0.00,meteohub,2013-10-10 19:22:00,
2013-10-10 15:27:00,86.4,71.2,29.95,NNW,338,2.0,9.0,61,0.00,,,0.00,meteohub,2013-10-10 19:27:00,
2013-10-10 15:32:00,86.4,71.2,29.95,East,96,0.0,9.0,61,0.00,,,0.00,meteohub,2013-10-10 19:32:00,
2013-10-10 15:37:00,86.2,72.1,29.95,NE,34,0.0,9.0,63,0.00,,,0.00,meteohub,2013-10-10 19:37:00,
2013-10-10 15:42:00,86.5,71.4,29.95,NE,46,0.0,9.0,61,0.00,,,0.00,meteohub,2013-10-10 19:42:00,
2013-10-10 15:47:00,86.9,71.8,29.95,ENE,67,5.0,9.0,61,0.00,,,0.00,meteohub,2013-10-10 19:47:00,
2013-10-10 15:52:00,86.2,71.6,29.95,NNW,335,6.0,11.0,62,0.00,,,0.00,meteohub,2013-10-10 19:52:00,
2013-10-10 15:57:00,86.2,71.6,29.95,ENE,57,4.0,11.0,62,0.00,,,0.00,meteohub,2013-10-10 19:57:00,
2013-10-10 16:02:00,86.2,71.1,29.95,ENE,63,4.0,11.0,61,0.00,,,0.00,meteohub,2013-10-10 20:02:00,
2013-10-10 16:07:00,85.8,71.2,29.95,ENE,65,0.0,10.0,62,0.00,,,0.00,meteohub,2013-10-10 20:07:00,
2013-10-10 16:12:00,85.6,71.6,29.95,ENE,63,1.0,11.0,63,0.00,,,0.00,meteohub,2013-10-10 20:12:00,
2013-10-10 16:17:00,85.6,72.1,29.95,ESE,106,2.0,11.0,64,0.00,,,0.00,meteohub,2013-10-10 20:17:00,
2013-10-10 16:22:00,85.6,71.6,29.95,NNE,28,2.0,11.0,63,0.00,,,0.00,meteohub,2013-10-10 20:22:00,
2013-10-10 16:27:00,85.5,72.3,29.95,NE,44,4.0,11.0,65,0.00,,,0.00,meteohub,2013-10-10 20:27:00,
2013-10-10 16:31:00,85.5,72.9,29.95,NE,38,3.0,11.0,66,0.00,,,0.00,meteohub,2013-10-10 20:31:00,
2013-10-10 16:36:00,85.6,73.0,29.95,North,5,2.0,11.0,66,0.00,,,0.00,meteohub,2013-10-10 20:36:00,
2013-10-10 16:41:00,85.1,71.6,29.95,NNE,33,2.0,10.0,64,0.00,,,0.00,meteohub,2013-10-10 20:41:00,
2013-10-10 16:46:00,84.9,72.3,29.95,NNE,25,6.0,10.0,66,0.00,,,0.00,meteohub,2013-10-10 20:46:00,
2013-10-10 16:51:00,84.6,72.0,29.95,NNE,33,1.0,10.0,66,0.00,,,0.00,meteohub,2013-10-10 20:51:00,
2013-10-10 16:56:00,84.7,73.0,29.95,East,96,1.0,9.0,68,0.00,,,0.00,meteohub,2013-10-10 20:56:00,
2013-10-10 17:01:00,84.6,72.3,29.94,NNE,28,5.0,9.0,67,0.00,,,0.00,meteohub,2013-10-10 21:01:00,
2013-10-10 17:06:00,84.0,72.0,29.95,NNW,336,7.0,9.0,67,0.00,,,0.00,meteohub,2013-10-10 21:06:00,
2013-10-10 17:11:00,84.0,72.3,29.95,North,5,5.0,9.0,68,0.00,,,0.00,meteohub,2013-10-10 21:11:00,
2013-10-10 17:16:00,83.8,71.8,29.95,North,355,3.0,10.0,67,0.00,,,0.00,meteohub,2013-10-10 21:16:00,
2013-10-10 17:21:00,83.5,71.4,29.95,NE,43,1.0,10.0,67,0.00,,,0.00,meteohub,2013-10-10 21:21:00,
2013-10-10 17:26:00,83.1,71.4,29.95,NE,35,3.0,10.0,68,0.00,,,0.00,meteohub,2013-10-10 21:26:00,
2013-10-10 17:31:00,82.9,71.8,29.95,NNW,344,3.0,9.0,69,0.00,,,0.00,meteohub,2013-10-10 21:31:00,
2013-10-10 17:36:00,83.1,71.4,29.95,NNW,328,4.0,9.0,68,0.00,,,0.00,meteohub,2013-10-10 21:36:00,
2013-10-10 17:41:00,82.8,71.1,29.96,NE,36,0.0,12.0,68,0.00,,,0.00,meteohub,2013-10-10 21:41:00,
2013-10-10 17:46:00,82.8,71.6,29.96,NNE,26,3.0,12.0,69,0.00,,,0.00,meteohub,2013-10-10 21:46:00,
2013-10-10 17:51:00,82.8,71.6,29.96,ENE,61,0.0,12.0,69,0.00,,,0.00,meteohub,2013-10-10 21:51:00,
2013-10-10 17:56:00,82.6,71.4,29.96,NNE,17,4.0,9.0,69,0.00,,,0.00,meteohub,2013-10-10 21:56:00,
2013-10-10 18:01:00,82.2,71.1,29.96,North,0,6.0,9.0,69,0.00,,,0.00,meteohub,2013-10-10 22:01:00,
2013-10-10 18:06:00,81.9,71.1,29.96,NE,52,0.0,8.0,70,0.00,,,0.00,meteohub,2013-10-10 22:06:00,
2013-10-10 18:11:00,81.7,71.4,29.96,NNE,21,0.0,8.0,71,0.00,,,0.00,meteohub,2013-10-10 22:11:00,
2013-10-10 18:16:00,81.7,71.4,29.96,NE,53,1.0,9.0,71,0.00,,,0.00,meteohub,2013-10-10 22:16:00,
2013-10-10 18:21:00,81.7,71.4,29.96,ENE,63,2.0,9.0,71,0.00,,,0.00,meteohub,2013-10-10 22:21:00,
2013-10-10 18:26:00,81.7,71.4,29.96,ENE,57,2.0,9.0,71,0.00,,,0.00,meteohub,2013-10-10 22:26:00,
2013-10-10 18:32:00,81.1,70.9,29.96,North,355,3.0,8.0,71,0.00,,,0.00,meteohub,2013-10-10 22:32:00,
2013-10-10 18:37:00,80.8,70.5,29.96,NNE,30,4.0,8.0,71,0.00,,,0.00,meteohub,2013-10-10 22:37:00,
2013-10-10 18:42:00,80.6,70.7,29.96,NE,55,3.0,8.0,72,0.00,,,0.00,meteohub,2013-10-10 22:42:00,
2013-10-10 18:47:00,80.4,70.5,29.96,NE,51,4.0,9.0,72,0.00,,,0.00,meteohub,2013-10-10 22:47:00,
2013-10-10 18:52:00,80.2,70.9,29.96,NNE,19,1.0,9.0,73,0.00,,,0.00,meteohub,2013-10-10 22:52:00,
2013-10-10 18:57:00,80.2,70.9,29.96,ENE,74,0.0,9.0,73,0.00,,,0.00,meteohub,2013-10-10 22:57:00,
2013-10-10 19:02:00,80.2,70.9,29.96,NNE,24,4.0,7.0,73,0.00,,,0.00,meteohub,2013-10-10 23:02:00,
2013-10-10 19:07:00,80.2,70.9,29.96,North,350,1.0,7.0,73,0.00,,,0.00,meteohub,2013-10-10 23:07:00,
2013-10-10 19:12:00,80.2,71.2,29.96,NNE,17,0.0,7.0,74,0.00,,,0.00,meteohub,2013-10-10 23:12:00,
2013-10-10 19:17:00,80.1,71.1,29.96,NE,41,2.0,7.0,74,0.00,,,0.00,meteohub,2013-10-10 23:17:00,
2013-10-10 19:22:00,80.1,70.7,29.96,NE,46,1.0,8.0,73,0.00,,,0.00,meteohub,2013-10-10 23:22:00,
2013-10-10 19:27:00,79.9,70.9,29.96,NE,37,3.0,8.0,74,0.00,,,0.00,meteohub,2013-10-10 23:27:00,
2013-10-10 19:32:00,79.9,70.5,29.97,NNW,331,1.0,8.0,73,0.00,,,0.00,meteohub,2013-10-10 23:32:00,
2013-10-10 19:37:00,80.1,70.7,29.97,North,0,2.0,8.0,73,0.00,,,0.00,meteohub,2013-10-10 23:37:00,
2013-10-10 19:42:00,79.9,70.5,29.97,NE,45,3.0,8.0,73,0.00,,,0.00,meteohub,2013-10-10 23:42:00,
2013-10-10 19:47:00,79.9,70.5,29.97,NNE,19,0.0,8.0,73,0.00,,,0.00,meteohub,2013-10-10 23:47:00,
2013-10-10 19:52:00,79.9,70.5,29.97,NE,40,2.0,8.0,73,0.00,,,0.00,meteohub,2013-10-10 23:52:00,
2013-10-10 19:57:00,79.5,70.2,29.97,NW,316,0.0,8.0,73,0.00,,,0.00,meteohub,2013-10-10 23:57:00,
2013-10-10 20:02:00,79.5,70.5,29.98,NNE,14,4.0,8.0,74,0.00,,,0.00,meteohub,2013-10-11 00:02:00,
2013-10-10 20:07:00,79.5,70.5,29.98,NNE,33,0.0,8.0,74,0.00,,,0.00,meteohub,2013-10-11 00:07:00,
2013-10-10 20:12:00,79.5,70.5,29.98,NNE,24,0.0,7.0,74,0.00,,,0.00,meteohub,2013-10-11 00:12:00,
2013-10-10 20:17:00,79.5,70.5,29.98,North,355,1.0,7.0,74,0.00,,,0.00,meteohub,2013-10-11 00:17:00,
2013-10-10 20:22:00,79.5,70.2,29.98,NE,42,0.0,9.0,73,0.00,,,0.00,meteohub,2013-10-11 00:22:00,
2013-10-10 20:27:00,79.5,70.2,29.98,NNE,22,1.0,9.0,73,0.00,,,0.00,meteohub,2013-10-11 00:27:00,
2013-10-10 20:32:00,79.3,70.0,29.98,NE,42,0.0,9.0,73,0.00,,,0.00,meteohub,2013-10-11 00:32:00,
2013-10-10 20:37:00,79.2,70.2,29.98,NNW,341,2.0,6.0,74,0.00,,,0.00,meteohub,2013-10-11 00:37:00,
2013-10-10 20:42:00,79.2,70.2,29.98,NNW,340,3.0,5.0,74,0.00,,,0.00,meteohub,2013-10-11 00:42:00,
2013-10-10 20:47:00,79.2,70.2,29.98,North,355,0.0,5.0,74,0.00,,,0.00,meteohub,2013-10-11 00:47:00,
2013-10-10 20:52:00,79.2,70.5,29.98,ENE,72,1.0,5.0,75,0.00,,,0.00,meteohub,2013-10-11 00:52:00,
2013-10-10 20:57:00,79.2,70.5,29.99,NE,56,3.0,5.0,75,0.00,,,0.00,meteohub,2013-10-11 00:57:00,
2013-10-10 21:02:00,79.2,70.5,29.99,ENE,76,0.0,5.0,75,0.00,,,0.00,meteohub,2013-10-11 01:02:00,
2013-10-10 21:07:00,79.2,70.5,29.99,West,259,0.0,5.0,75,0.00,,,0.00,meteohub,2013-10-11 01:07:00,
2013-10-10 21:12:00,79.0,70.3,29.99,NE,42,4.0,5.0,75,0.00,,,0.00,meteohub,2013-10-11 01:12:00,
2013-10-10 21:17:00,79.0,70.3,29.99,NE,39,1.0,5.0,75,0.00,,,0.00,meteohub,2013-10-11 01:17:00,
2013-10-10 21:22:00,79.2,70.2,29.99,NE,40,0.0,5.0,74,0.00,,,0.00,meteohub,2013-10-11 01:22:00,
2013-10-10 21:27:00,79.2,70.2,29.99,East,96,2.0,5.0,74,0.00,,,0.00,meteohub,2013-10-11 01:27:00,
2013-10-10 21:32:00,79.2,70.2,29.99,ENE,58,0.0,5.0,74,0.00,,,0.00,meteohub,2013-10-11 01:32:00,
2013-10-10 21:37:00,79.2,69.8,29.99,East,83,0.0,5.0,73,0.00,,,0.00,meteohub,2013-10-11 01:37:00,
2013-10-10 21:42:00,79.2,70.2,29.99,NE,42,0.0,5.0,74,0.00,,,0.00,meteohub,2013-10-11 01:42:00,
2013-10-10 21:47:00,79.2,70.2,29.99,ENE,70,0.0,3.0,74,0.00,,,0.00,meteohub,2013-10-11 01:47:00,
2013-10-10 21:52:00,79.2,70.2,29.99,NNE,32,2.0,3.0,74,0.00,,,0.00,meteohub,2013-10-11 01:52:00,
2013-10-10 21:57:00,79.2,70.2,29.99,NNE,26,0.0,4.0,74,0.00,,,0.00,meteohub,2013-10-11 01:57:00,
2013-10-10 22:02:00,79.0,69.6,30.00,NE,47,0.0,4.0,73,0.00,,,0.00,meteohub,2013-10-11 02:02:00,
2013-10-10 22:07:00,79.0,69.6,29.99,ENE,64,0.0,7.0,73,0.00,,,0.00,meteohub,2013-10-11 02:07:00,
2013-10-10 22:12:00,79.0,69.6,30.00,NNE,30,0.0,7.0,73,0.00,,,0.00,meteohub,2013-10-11 02:12:00,
2013-10-10 22:17:00,78.8,69.4,30.00,ENE,69,1.0,7.0,73,0.00,,,0.00,meteohub,2013-10-11 02:17:00,
2013-10-10 22:22:00,78.8,69.4,30.00,NE,38,0.0,5.0,73,0.00,,,0.00,meteohub,2013-10-11 02:22:00,
2013-10-10 22:27:00,78.8,69.4,30.00,NNE,12,0.0,5.0,73,0.00,,,0.00,meteohub,2013-10-11 02:27:00,
2013-10-10 22:32:00,78.8,69.1,30.00,NE,41,0.0,4.0,72,0.00,,,0.00,meteohub,2013-10-11 02:32:00,
2013-10-10 22:37:00,78.8,69.1,30.00,NE,38,0.0,4.0,72,0.00,,,0.00,meteohub,2013-10-11 02:37:00,
2013-10-10 22:42:00,78.8,69.4,30.00,NE,46,1.0,5.0,73,0.00,,,0.00,meteohub,2013-10-11 02:42:00,
2013-10-10 22:47:00,79.0,69.3,30.00,NE,50,4.0,6.0,72,0.00,,,0.00,meteohub,2013-10-11 02:47:00,
2013-10-10 22:52:00,78.8,69.4,30.00,NE,53,0.0,6.0,73,0.00,,,0.00,meteohub,2013-10-11 02:52:00,
2013-10-10 22:57:00,78.6,69.3,30.00,NE,55,0.0,6.0,73,0.00,,,0.00,meteohub,2013-10-11 02:57:00,
2013-10-10 23:02:00,78.6,70.0,29.99,NE,34,2.0,4.0,75,0.00,,,0.00,meteohub,2013-10-11 03:02:00,
2013-10-10 23:07:00,78.4,69.8,29.99,ENE,59,0.0,3.0,75,0.00,,,0.00,meteohub,2013-10-11 03:07:00,
2013-10-10 23:12:00,78.4,69.4,29.99,NNE,25,0.0,8.0,74,0.00,,,0.00,meteohub,2013-10-11 03:12:00,
2013-10-10 23:17:00,78.4,69.1,29.99,NNE,28,1.0,8.0,73,0.00,,,0.00,meteohub,2013-10-11 03:17:00,
2013-10-10 23:22:00,78.4,69.4,29.99,NE,34,1.0,8.0,74,0.00,,,0.00,meteohub,2013-10-11 03:22:00,
2013-10-10 23:27:00,78.4,69.4,29.99,NE,49,2.0,6.0,74,0.00,,,0.00,meteohub,2013-10-11 03:27:00,
2013-10-10 23:32:00,78.1,69.1,29.99,NE,41,1.0,5.0,74,0.00,,,0.00,meteohub,2013-10-11 03:32:00,
2013-10-10 23:37:00,77.7,68.7,29.99,NW,316,1.0,3.0,74,0.00,,,0.00,meteohub,2013-10-11 03:37:00,
2013-10-10 23:42:00,77.5,68.5,29.98,NE,43,0.0,2.0,74,0.00,,,0.00,meteohub,2013-10-11 03:42:00,
2013-10-10 23:47:00,77.4,68.4,29.98,North,0,0.0,2.0,74,0.00,,,0.00,meteohub,2013-10-11 03:47:00,
2013-10-10 23:52:00,77.4,68.4,29.98,North,5,0.0,2.0,74,0.00,,,0.00,meteohub,2013-10-11 03:52:00,
2013-10-10 23:57:00,77.0,68.5,29.98,NNE,32,0.0,2.0,75,0.00,,,0.00,meteohub,2013-10-11 03:57:00,